Flight Track Log - Related Links

Times and Time Zones

All times are in EDT time to prevent confusion due to time zone crossing. See the EJA929 flight status page for this flight to view local times or setup timezone preferences in your user account.

Time Position Orientation Groundspeed Altitude Reporting Facility
EDT Latitude Longitude Course Direction KTS MPH feet Rate Location/Type
Thu 04:25:41 PM 47.5428 -122.3133 359° North 247 284 5,700  Level Seattle Center
Thu 04:26:42 PM 47.6047 -122.3744 326° Northwest 303 349 8,900 2,233 Climbing Seattle Center
Thu 04:27:07 PM 47.6136 -122.4269 284° West 290 334 8,900 1,395 Level Seattle Center
Thu 04:28:08 PM 47.5775 -122.5322 243° Southwest 302 348 10,900 2,164 Climbing Seattle Center
Thu 04:29:09 PM 47.5147 -122.6278 226° Southwest 325 374 13,300 2,311 Climbing Seattle Center
Thu 04:30:10 PM 47.4419 -122.7397 226° Southwest 350 403 15,600 2,115 Climbing Seattle Center
Thu 04:31:11 PM 47.3708 -122.8467 226° Southwest 365 420 17,600 1,820 Climbing Seattle Center
Thu 04:32:12 PM 47.3042 -122.9494 226° Southwest 374 430 19,300 1,623 Climbing Seattle Center
Thu 04:33:13 PM 47.2100 -123.0089 203° Southwest 391 450 20,900 1,672 Climbing Seattle Center
Thu 04:34:14 PM 47.1028 -123.0058 179° South 392 451 22,700 1,721 Climbing Seattle Center
Thu 04:35:15 PM 46.9931 -123.0019 179° South 398 458 24,400 1,967 Climbing Seattle Center
Thu 04:36:16 PM 46.8592 -122.9992 179° South 404 465 26,700 1,967 Climbing Seattle Center
Thu 04:37:17 PM 46.7439 -122.9950 179° South 417 480 28,400 1,869 Climbing Seattle Center
Thu 04:38:18 PM 46.6294 -122.9986 181° South 416 479 30,500 1,951 Climbing Seattle Center
Thu 04:39:20 PM 46.5092 -122.9922 178° South 432 497 32,400 1,951 Climbing Seattle Center
Thu 04:40:21 PM 46.3867 -122.9850 178° South 440 506 34,500 2,016 Climbing Seattle Center
Thu 04:41:22 PM 46.2653 -122.9875 181° South 441 507 36,500 1,574 Climbing Seattle Center
Thu 04:42:23 PM 46.1425 -122.9861 180° South 444 511 37,700 1,230 Climbing Seattle Center
Thu 04:43:24 PM 45.9864 -122.9758 177° South 463 533 39,000 1,180 Climbing Seattle Center
Thu 04:44:25 PM 45.8589 -122.9719 179° South 462 532 40,100 984 Climbing Seattle Center
Thu 04:45:26 PM 45.7289 -122.9733 180° South 469 540 41,000 443 Climbing Seattle Center
Thu 04:46:27 PM 45.5964 -122.9703 179° South 477 549 41,000  Level Seattle Center
Thu 04:47:28 PM 45.4603 -122.9658 179° South 487 560 41,000  Level Seattle Center
Thu 04:48:29 PM 45.3206 -122.9611 179° South 498 573 41,000  Level Seattle Center
Thu 04:49:30 PM 45.1814 -122.9572 179° South 501 577 41,000  Level Seattle Center
Thu 04:50:31 PM 45.0400 -122.9550 179° South 508 585 41,000  Level Seattle Center
Thu 04:51:32 PM 44.8997 -122.9511 179° South 507 583 41,000  Level Seattle Center
Thu 04:52:33 PM 44.7608 -122.9478 179° South 499 574 41,000  Level Seattle Center
Thu 04:53:34 PM 44.6197 -122.9461 180° South 502 578 41,000  Level Seattle Center
Thu 04:54:35 PM 44.4781 -122.9347 177° South 507 583 41,000  Level Seattle Center
Thu 04:55:36 PM 44.3383 -122.8897 167° South 509 586 41,000  Level Seattle Center
Thu 04:56:37 PM 44.1986 -122.8425 166° South 509 586 41,000  Level Seattle Center
Thu 04:57:38 PM 44.0581 -122.7972 167° South 512 589 41,000  Level Seattle Center
Thu 04:58:39 PM 43.9203 -122.7514 167° South 505 581 41,000  Level Seattle Center
Thu 04:59:40 PM 43.7556 -122.6969 167° South 505 581 41,000  Level Seattle Center
Thu 05:00:41 PM 43.6194 -122.6531 167° South 502 578 41,000  Level Seattle Center
Thu 05:01:42 PM 43.4806 -122.6114 168° South 509 586 41,000  Level Seattle Center
Thu 05:02:43 PM 43.3439 -122.5617 165° South 507 583 41,000  Level Seattle Center
Thu 05:03:44 PM 43.2047 -122.5214 168° South 509 586 41,000  Level Seattle Center
Thu 05:05:46 PM 42.9286 -122.4333 167° South 509 586 41,000  Level Seattle Center
Thu 05:06:47 PM 42.7911 -122.3900 167° South 508 585 41,000  Level Seattle Center
Thu 05:07:48 PM 42.6408 -122.3397 166° South 510 587 41,000  Level Seattle Center
Thu 05:08:49 PM 42.5025 -122.2969 167° South 511 588 41,000  Level Seattle Center
Thu 05:09:50 PM 42.3644 -122.2544 167° South 510 587 41,000  Level Seattle Center
Thu 05:10:51 PM 42.2269 -122.2131 167° South 511 588 41,000  Level Seattle Center
Thu 05:11:51 PM 42.0900 -122.1694 167° South 513 590 41,000  Level Seattle Center
Thu 05:12:52 PM 41.9561 -122.1281 167° South 509 586 41,000  Level Seattle Center
Thu 05:13:53 PM 41.8183 -122.0869 167° South 512 589 41,000  Level Seattle Center
Thu 05:14:55 PM 41.6803 -122.0456 167° South 511 588 41,000  Level Seattle Center
Thu 05:15:55 PM 41.5147 -121.9953 167° South 511 588 41,000  Level Seattle Center
Thu 05:16:56 PM 41.3775 -121.9544 167° South 508 585 41,000  Level Seattle Center
Thu 05:17:57 PM 41.2400 -121.9131 167° South 507 583 41,000  Level Seattle Center
Thu 05:18:58 PM 41.1022 -121.8719 167° South 507 583 41,000  Level Seattle Center
Thu 05:19:50 PM 40.9925 -121.8383 167° South 504 580 41,000  Level Oakland Center
Thu 05:20:52 PM 40.8561 -121.7978 167° South 504 580 41,000  Level Oakland Center
Thu 05:21:53 PM 40.7189 -121.7544 167° South 506 582 41,000  Level Oakland Center
Thu 05:22:55 PM 40.5819 -121.7125 167° South 506 582 41,000  Level Oakland Center
Thu 05:23:56 PM 40.4167 -121.6697 169° South 502 578 41,000  Level Oakland Center
Thu 05:24:57 PM 40.2794 -121.6292 167° South 504 580 41,000  Level Oakland Center
Thu 05:25:59 PM 40.1417 -121.5900 168° South 505 581 41,000  Level Oakland Center
Thu 05:27:00 PM 40.0042 -121.5483 167° South 507 583 41,000  Level Oakland Center
Thu 05:28:02 PM 39.8656 -121.5106 168° South 508 585 41,000  Level Oakland Center
Thu 05:29:03 PM 39.7278 -121.4700 167° South 507 583 41,000  Level Oakland Center
Thu 05:30:04 PM 39.5903 -121.4297 167° South 507 583 41,000  Level Oakland Center
Thu 05:31:06 PM 39.4522 -121.3908 168° South 507 583 41,000  Level Oakland Center
Thu 05:32:07 PM 39.3156 -121.3511 167° South 505 581 41,000  Level Oakland Center
Thu 05:33:09 PM 39.1511 -121.3044 168° South 503 579 41,000  Level Oakland Center
Thu 05:34:10 PM 39.0153 -121.2661 168° South 500 575 41,000  Level Oakland Center
Thu 05:35:11 PM 38.8789 -121.2269 167° South 499 574 41,000  Level Oakland Center
Thu 05:36:13 PM 38.7411 -121.1883 168° South 503 579 41,000  Level Oakland Center
Thu 05:37:14 PM 38.6008 -121.1489 168° South 502 578 41,000  Level Oakland Center
Thu 05:38:16 PM 38.4586 -121.1094 168° South 505 581 41,000  Level Oakland Center
Thu 05:39:17 PM 38.3197 -121.0711 168° South 505 581 41,000  Level Oakland Center
Thu 05:40:18 PM 38.1836 -121.0331 168° South 501 577 41,000  Level Oakland Center
Thu 05:41:20 PM 38.0508 -120.9922 166° South 493 567 41,000  Level Oakland Center
Thu 05:42:21 PM 37.9192 -120.9356 161° South 496 571 41,000  Level Oakland Center
Thu 05:43:23 PM 37.7875 -120.8775 161° South 499 574 41,000  Level Oakland Center
Thu 05:44:24 PM 37.6578 -120.8211 161° South 494 568 41,000  Level Oakland Center
Thu 05:45:25 PM 37.5272 -120.7628 160° South 496 571 41,000  Level Oakland Center
Thu 05:46:27 PM 37.3986 -120.6969 158° South 498 573 41,000  Level Oakland Center
Thu 05:47:28 PM 37.2433 -120.6194 158° South 496 571 41,000  Level Oakland Center
Thu 05:48:29 PM 37.1122 -120.5567 159° South 492 566 41,000 -49 Level Oakland Center
Thu 05:49:31 PM 36.9856 -120.4911 158° South 489 563 40,900 -683 Descending Oakland Center
Thu 05:50:32 PM 36.8614 -120.4289 158° South 492 566 39,600 -1,317 Descending Oakland Center
Thu 05:51:34 PM 36.7461 -120.3692 157° South 459 528 38,200 -1,366 Descending Oakland Center
Thu 05:52:35 PM 36.6239 -120.3075 158° South 469 540 36,800 -1,512 Descending Oakland Center
Thu 05:53:37 PM 36.4764 -120.2325 158° South 486 559 35,100 -1,512 Descending Oakland Center
Thu 05:54:38 PM 36.3494 -120.1703 158° South 491 565 33,700 -1,377 Descending Oakland Center
Thu 05:55:39 PM 36.2206 -120.1069 158° South 497 572 32,300 -1,317 Descending Oakland Center
Thu 05:56:41 PM 36.0889 -120.0414 158° South 506 582 31,000 -634 Descending Oakland Center
Thu 05:57:42 PM 35.9589 -119.9814 160° South 496 571 31,000  Level Oakland Center
Thu 05:58:44 PM 35.8258 -119.9175 159° South 506 582 31,000 -146 Level Oakland Center
Thu 05:59:45 PM 35.6931 -119.8528 158° South 509 586 30,700 -732 Descending Oakland Center
Thu 06:00:47 PM 35.5672 -119.7903 158° South 488 562 29,500 -1,171 Descending Oakland Center
Thu 06:01:48 PM 35.4519 -119.7347 159° South 449 517 28,300 -1,317 Descending Oakland Center
Thu 06:02:50 PM 35.3336 -119.6778 159° South 450 518 26,800 -1,575 Descending Oakland Center
Thu 06:03:08 PM 35.2872 -119.6558 159° South 450 518 26,200 -1,556 Descending Los Angeles Center
Thu 06:04:11 PM 35.1842 -119.5781 148° Southeast 436 502 24,700 -1,056 Descending Los Angeles Center
Thu 06:05:13 PM 35.0850 -119.4933 145° Southeast 434 499 24,000 -1,113 Descending Los Angeles Center
Thu 06:06:15 PM 34.9894 -119.4125 145° Southeast 421 484 22,400 -1,897 Descending Los Angeles Center
Thu 06:07:29 PM 34.8739 -119.3142 145° Southeast 423 487 19,700 -2,338 Descending Los Angeles Center
Thu 06:08:31 PM 34.7611 -119.2183 145° Southeast 412 474 17,100 -2,029 Descending Los Angeles Center
Thu 06:09:45 PM 34.6736 -119.1456 146° Southeast 385 443 15,100 -2,015 Descending Los Angeles Center
Thu 06:10:48 PM 34.5586 -119.0503 146° Southeast 400 460 12,500 -2,016 Descending Los Angeles Center
Thu 06:11:50 PM 34.4703 -118.9761 145° Southeast 384 442 10,900 -1,742 Descending Los Angeles Center
Thu 06:12:52 PM 34.3992 -118.9111 143° Southeast 317 365 8,900 -1,984 Descending Los Angeles Center
Thu 06:13:54 PM 34.3858 -118.8150 100° East 289 333 6,800 -1,597 Descending Los Angeles Center
Thu 06:14:56 PM 34.3792 -118.7264 95° East 266 306 5,600 -864 Descending Los Angeles Center
Thu 06:15:59 PM 34.3692 -118.6294 97° East 252 290 5,000 -288 Descending Los Angeles Center
Thu 06:17:01 PM 34.3878 -118.5536 73° East 241 277 5,000 -194 Level Los Angeles Center
Thu 06:18:03 PM 34.3528 -118.4975 127° Southeast 247 284 4,600 -871 Descending Los Angeles Center
Thu 06:19:05 PM 34.2944 -118.4992 181° South 223 257 3,200 -1,258 Descending Los Angeles Center
Thu 06:20:07 PM 34.2528 -118.4958 176° South 183 211 2,000 -871 Descending Los Angeles Center
Thu 06:21:09 PM 34.2153 -118.4908 174° South 156 180 1,400 -581 Descending Los Angeles Center
Thu 06:23:00 PM 34.2098 -118.4900 180° South  Level Estimated
Thu 06:30:00 PM 34.2098 -118.4900 180° South  Level Estimated

Login

Don't have an account? Register now (free) for customized features, flight alerts, and more!